sensor_id;sensor_type;location;lat;lon;timestamp;P1;durP1;ratioP1;P2;durP2;ratioP2
20318;SDS011;10317;47.254;11.314;2022-09-03T00:02:13;2.55;;;2.40;;
20318;SDS011;10317;47.254;11.314;2022-09-03T00:07:34;2.42;;;2.22;;
20318;SDS011;10317;47.254;11.314;2022-09-03T00:10:07;2.42;;;2.20;;
20318;SDS011;10317;47.254;11.314;2022-09-03T00:12:39;3.72;;;2.40;;
20318;SDS011;10317;47.254;11.314;2022-09-03T00:15:09;5.13;;;2.35;;
20318;SDS011;10317;47.254;11.314;2022-09-03T00:17:44;2.35;;;2.13;;
20318;SDS011;10317;47.254;11.314;2022-09-03T00:20:19;2.40;;;2.30;;
20318;SDS011;10317;47.254;11.314;2022-09-03T00:22:52;2.47;;;2.15;;
20318;SDS011;10317;47.254;11.314;2022-09-03T00:25:24;2.65;;;2.55;;
20318;SDS011;10317;47.254;11.314;2022-09-03T00:27:58;2.75;;;2.55;;
20318;SDS011;10317;47.254;11.314;2022-09-03T00:30:28;4.15;;;2.40;;
20318;SDS011;10317;47.254;11.314;2022-09-03T00:32:58;2.30;;;2.20;;
20318;SDS011;10317;47.254;11.314;2022-09-03T00:35:40;3.22;;;2.35;;
20318;SDS011;10317;47.254;11.314;2022-09-03T00:38:11;2.80;;;1.92;;
20318;SDS011;10317;47.254;11.314;2022-09-03T00:40:44;2.70;;;2.58;;
20318;SDS011;10317;47.254;11.314;2022-09-03T00:54:10;2.58;;;2.42;;
20318;SDS011;10317;47.254;11.314;2022-09-03T01:08:09;2.53;;;2.40;;
20318;SDS011;10317;47.254;11.314;2022-09-03T01:19:27;3.08;;;2.67;;
20318;SDS011;10317;47.254;11.314;2022-09-03T01:30:44;2.72;;;2.63;;
20318;SDS011;10317;47.254;11.314;2022-09-03T01:38:25;3.97;;;2.65;;
20318;SDS011;10317;47.254;11.314;2022-09-03T01:46:43;3.40;;;2.78;;
20318;SDS011;10317;47.254;11.314;2022-09-03T01:52:02;2.65;;;2.33;;
20318;SDS011;10317;47.254;11.314;2022-09-03T01:57:57;2.72;;;2.60;;
20318;SDS011;10317;47.254;11.314;2022-09-03T02:00:13;5.43;;;2.40;;
20318;SDS011;10317;47.254;11.314;2022-09-03T02:02:43;3.40;;;2.60;;
20318;SDS011;10317;47.254;11.314;2022-09-03T02:05:17;2.80;;;2.60;;
20318;SDS011;10317;47.254;11.314;2022-09-03T02:07:55;2.35;;;2.17;;
20318;SDS011;10317;47.254;11.314;2022-09-03T02:10:45;2.67;;;2.58;;
20318;SDS011;10317;47.254;11.314;2022-09-03T02:13:24;2.45;;;2.25;;
20318;SDS011;10317;47.254;11.314;2022-09-03T02:16:05;2.45;;;2.33;;
20318;SDS011;10317;47.254;11.314;2022-09-03T02:18:42;2.92;;;2.72;;
20318;SDS011;10317;47.254;11.314;2022-09-03T02:21:12;4.72;;;2.80;;
20318;SDS011;10317;47.254;11.314;2022-09-03T02:23:40;3.15;;;2.42;;
20318;SDS011;10317;47.254;11.314;2022-09-03T02:26:07;4.60;;;4.18;;
20318;SDS011;10317;47.254;11.314;2022-09-03T02:28:35;3.20;;;2.90;;
20318;SDS011;10317;47.254;11.314;2022-09-03T02:31:02;4.25;;;3.20;;
20318;SDS011;10317;47.254;11.314;2022-09-03T02:33:28;3.05;;;2.40;;
20318;SDS011;10317;47.254;11.314;2022-09-03T02:35:57;2.50;;;2.40;;
20318;SDS011;10317;47.254;11.314;2022-09-03T02:38:23;2.25;;;2.15;;
20318;SDS011;10317;47.254;11.314;2022-09-03T02:40:50;2.47;;;2.38;;
20318;SDS011;10317;47.254;11.314;2022-09-03T02:44:05;2.63;;;2.53;;
20318;SDS011;10317;47.254;11.314;2022-09-03T02:46:13;3.35;;;2.70;;
20318;SDS011;10317;47.254;11.314;2022-09-03T02:48:45;3.92;;;2.70;;
20318;SDS011;10317;47.254;11.314;2022-09-03T02:51:10;2.60;;;2.42;;
20318;SDS011;10317;47.254;11.314;2022-09-03T02:53:36;2.35;;;2.10;;
20318;SDS011;10317;47.254;11.314;2022-09-03T02:56:02;3.05;;;2.80;;
20318;SDS011;10317;47.254;11.314;2022-09-03T02:58:28;3.15;;;2.50;;
20318;SDS011;10317;47.254;11.314;2022-09-03T03:00:55;2.53;;;2.42;;
20318;SDS011;10317;47.254;11.314;2022-09-03T03:03:22;2.63;;;2.33;;
20318;SDS011;10317;47.254;11.314;2022-09-03T03:05:51;3.70;;;2.78;;
20318;SDS011;10317;47.254;11.314;2022-09-03T03:08:22;2.55;;;2.45;;
20318;SDS011;10317;47.254;11.314;2022-09-03T03:10:52;3.35;;;2.45;;
20318;SDS011;10317;47.254;11.314;2022-09-03T03:13:21;2.50;;;2.30;;
20318;SDS011;10317;47.254;11.314;2022-09-03T03:15:47;2.78;;;2.60;;
20318;SDS011;10317;47.254;11.314;2022-09-03T03:18:13;2.95;;;2.55;;
20318;SDS011;10317;47.254;11.314;2022-09-03T03:20:39;5.18;;;2.63;;
20318;SDS011;10317;47.254;11.314;2022-09-03T03:23:06;3.58;;;2.67;;
20318;SDS011;10317;47.254;11.314;2022-09-03T03:25:35;2.40;;;2.30;;
20318;SDS011;10317;47.254;11.314;2022-09-03T03:28:03;2.33;;;2.20;;
20318;SDS011;10317;47.254;11.314;2022-09-03T03:30:30;2.20;;;2.13;;
20318;SDS011;10317;47.254;11.314;2022-09-03T03:32:56;2.55;;;2.35;;
20318;SDS011;10317;47.254;11.314;2022-09-03T03:35:22;2.55;;;2.40;;
20318;SDS011;10317;47.254;11.314;2022-09-03T03:37:48;2.72;;;2.63;;
20318;SDS011;10317;47.254;11.314;2022-09-03T03:40:14;2.80;;;2.42;;
20318;SDS011;10317;47.254;11.314;2022-09-03T03:42:41;5.03;;;3.05;;
20318;SDS011;10317;47.254;11.314;2022-09-03T03:45:07;3.00;;;2.60;;
20318;SDS011;10317;47.254;11.314;2022-09-03T03:47:34;3.10;;;2.60;;
20318;SDS011;10317;47.254;11.314;2022-09-03T03:50:00;2.42;;;2.22;;
20318;SDS011;10317;47.254;11.314;2022-09-03T03:52:26;2.63;;;2.53;;
20318;SDS011;10317;47.254;11.314;2022-09-03T03:54:52;3.33;;;2.70;;
20318;SDS011;10317;47.254;11.314;2022-09-03T03:57:18;3.42;;;3.13;;
20318;SDS011;10317;47.254;11.314;2022-09-03T03:59:45;4.00;;;3.60;;
20318;SDS011;10317;47.254;11.314;2022-09-03T04:02:12;3.25;;;2.70;;
20318;SDS011;10317;47.254;11.314;2022-09-03T04:04:39;2.80;;;2.60;;
20318;SDS011;10317;47.254;11.314;2022-09-03T04:07:05;2.88;;;2.70;;
20318;SDS011;10317;47.254;11.314;2022-09-03T04:09:30;2.88;;;2.67;;
20318;SDS011;10317;47.254;11.314;2022-09-03T04:11:56;2.97;;;2.78;;
20318;SDS011;10317;47.254;11.314;2022-09-03T04:14:22;3.15;;;2.95;;
20318;SDS011;10317;47.254;11.314;2022-09-03T04:16:48;4.07;;;2.72;;
20318;SDS011;10317;47.254;11.314;2022-09-03T04:19:15;2.60;;;2.50;;
20318;SDS011;10317;47.254;11.314;2022-09-03T04:21:41;3.05;;;2.90;;
20318;SDS011;10317;47.254;11.314;2022-09-03T04:24:07;3.30;;;3.10;;
20318;SDS011;10317;47.254;11.314;2022-09-03T04:26:33;2.95;;;2.80;;
20318;SDS011;10317;47.254;11.314;2022-09-03T04:29:01;2.53;;;2.35;;
20318;SDS011;10317;47.254;11.314;2022-09-03T04:31:34;2.65;;;2.55;;
20318;SDS011;10317;47.254;11.314;2022-09-03T04:34:01;3.58;;;2.95;;
20318;SDS011;10317;47.254;11.314;2022-09-03T04:36:27;3.42;;;2.65;;
20318;SDS011;10317;47.254;11.314;2022-09-03T04:38:55;3.47;;;3.05;;
20318;SDS011;10317;47.254;11.314;2022-09-03T04:41:24;3.28;;;2.33;;
20318;SDS011;10317;47.254;11.314;2022-09-03T04:43:51;3.72;;;3.15;;
20318;SDS011;10317;47.254;11.314;2022-09-03T04:46:19;3.08;;;2.88;;
20318;SDS011;10317;47.254;11.314;2022-09-03T04:48:49;3.05;;;2.70;;
20318;SDS011;10317;47.254;11.314;2022-09-03T04:51:17;3.72;;;2.75;;
20318;SDS011;10317;47.254;11.314;2022-09-03T04:53:47;4.38;;;2.92;;
20318;SDS011;10317;47.254;11.314;2022-09-03T04:56:19;5.18;;;2.70;;
20318;SDS011;10317;47.254;11.314;2022-09-03T04:58:47;3.17;;;2.97;;
20318;SDS011;10317;47.254;11.314;2022-09-03T05:01:18;2.60;;;2.50;;
20318;SDS011;10317;47.254;11.314;2022-09-03T05:03:45;2.75;;;2.60;;
20318;SDS011;10317;47.254;11.314;2022-09-03T05:06:12;3.05;;;2.88;;
20318;SDS011;10317;47.254;11.314;2022-09-03T05:08:41;2.80;;;2.60;;
20318;SDS011;10317;47.254;11.314;2022-09-03T05:11:08;3.45;;;2.83;;
20318;SDS011;10317;47.254;11.314;2022-09-03T05:13:34;2.83;;;2.63;;
20318;SDS011;10317;47.254;11.314;2022-09-03T05:16:05;3.05;;;2.78;;
20318;SDS011;10317;47.254;11.314;2022-09-03T05:18:32;3.42;;;2.72;;
20318;SDS011;10317;47.254;11.314;2022-09-03T05:21:06;3.45;;;3.25;;
20318;SDS011;10317;47.254;11.314;2022-09-03T05:23:34;3.60;;;3.30;;
20318;SDS011;10317;47.254;11.314;2022-09-03T05:26:04;3.60;;;3.30;;
20318;SDS011;10317;47.254;11.314;2022-09-03T05:28:33;3.53;;;3.22;;
20318;SDS011;10317;47.254;11.314;2022-09-03T05:31:08;3.40;;;3.20;;
20318;SDS011;10317;47.254;11.314;2022-09-03T05:33:43;3.00;;;2.80;;
20318;SDS011;10317;47.254;11.314;2022-09-03T05:36:13;5.35;;;3.40;;
20318;SDS011;10317;47.254;11.314;2022-09-03T05:38:41;2.88;;;2.78;;
20318;SDS011;10317;47.254;11.314;2022-09-03T05:41:08;3.10;;;2.90;;
20318;SDS011;10317;47.254;11.314;2022-09-03T05:43:35;3.70;;;3.40;;
20318;SDS011;10317;47.254;11.314;2022-09-03T05:46:03;3.35;;;3.10;;
20318;SDS011;10317;47.254;11.314;2022-09-03T05:48:32;6.03;;;3.30;;
20318;SDS011;10317;47.254;11.314;2022-09-03T05:50:59;5.13;;;3.00;;
20318;SDS011;10317;47.254;11.314;2022-09-03T05:53:26;3.15;;;2.95;;
20318;SDS011;10317;47.254;11.314;2022-09-03T05:55:56;3.42;;;3.22;;
20318;SDS011;10317;47.254;11.314;2022-09-03T05:58:22;3.70;;;3.33;;
20318;SDS011;10317;47.254;11.314;2022-09-03T06:00:49;3.92;;;3.63;;
20318;SDS011;10317;47.254;11.314;2022-09-03T06:03:15;3.35;;;3.15;;
20318;SDS011;10317;47.254;11.314;2022-09-03T06:05:48;4.05;;;2.88;;
20318;SDS011;10317;47.254;11.314;2022-09-03T06:08:19;2.60;;;2.50;;
20318;SDS011;10317;47.254;11.314;2022-09-03T06:10:46;5.00;;;3.95;;
20318;SDS011;10317;47.254;11.314;2022-09-03T06:13:11;8.38;;;5.60;;
20318;SDS011;10317;47.254;11.314;2022-09-03T06:15:37;4.75;;;3.97;;
20318;SDS011;10317;47.254;11.314;2022-09-03T06:18:03;5.93;;;3.90;;
20318;SDS011;10317;47.254;11.314;2022-09-03T06:20:29;5.07;;;4.68;;
20318;SDS011;10317;47.254;11.314;2022-09-03T06:22:56;4.80;;;3.70;;
20318;SDS011;10317;47.254;11.314;2022-09-03T06:25:22;5.80;;;3.75;;
20318;SDS011;10317;47.254;11.314;2022-09-03T06:27:48;4.60;;;4.03;;
20318;SDS011;10317;47.254;11.314;2022-09-03T06:30:14;5.55;;;4.28;;
20318;SDS011;10317;47.254;11.314;2022-09-03T06:32:44;4.22;;;3.70;;
20318;SDS011;10317;47.254;11.314;2022-09-03T06:35:11;4.07;;;3.72;;
20318;SDS011;10317;47.254;11.314;2022-09-03T06:37:40;3.83;;;3.42;;
20318;SDS011;10317;47.254;11.314;2022-09-03T06:40:06;3.65;;;3.35;;
20318;SDS011;10317;47.254;11.314;2022-09-03T06:42:40;3.40;;;3.20;;
20318;SDS011;10317;47.254;11.314;2022-09-03T06:45:07;3.50;;;3.20;;
20318;SDS011;10317;47.254;11.314;2022-09-03T06:47:33;4.65;;;3.97;;
20318;SDS011;10317;47.254;11.314;2022-09-03T06:49:59;4.97;;;3.80;;
20318;SDS011;10317;47.254;11.314;2022-09-03T06:52:26;3.28;;;3.08;;
20318;SDS011;10317;47.254;11.314;2022-09-03T06:54:52;3.47;;;3.28;;
20318;SDS011;10317;47.254;11.314;2022-09-03T06:57:18;3.60;;;3.30;;
20318;SDS011;10317;47.254;11.314;2022-09-03T06:59:43;6.28;;;3.15;;
20318;SDS011;10317;47.254;11.314;2022-09-03T07:02:09;3.67;;;3.30;;
20318;SDS011;10317;47.254;11.314;2022-09-03T07:04:35;3.03;;;2.83;;
20318;SDS011;10317;47.254;11.314;2022-09-03T07:07:00;2.88;;;2.58;;
20318;SDS011;10317;47.254;11.314;2022-09-03T07:09:26;2.90;;;2.60;;
20318;SDS011;10317;47.254;11.314;2022-09-03T07:11:53;4.00;;;2.78;;
20318;SDS011;10317;47.254;11.314;2022-09-03T07:14:19;2.83;;;2.28;;
20318;SDS011;10317;47.254;11.314;2022-09-03T07:16:46;2.78;;;2.60;;
20318;SDS011;10317;47.254;11.314;2022-09-03T07:19:13;3.72;;;3.17;;
20318;SDS011;10317;47.254;11.314;2022-09-03T07:21:39;3.65;;;3.03;;
20318;SDS011;10317;47.254;11.314;2022-09-03T07:24:06;3.17;;;2.97;;
20318;SDS011;10317;47.254;11.314;2022-09-03T07:26:36;2.60;;;2.50;;
20318;SDS011;10317;47.254;11.314;2022-09-03T07:29:05;2.03;;;1.92;;
20318;SDS011;10317;47.254;11.314;2022-09-03T07:31:33;2.33;;;2.22;;
20318;SDS011;10317;47.254;11.314;2022-09-03T07:34:02;3.13;;;2.58;;
20318;SDS011;10317;47.254;11.314;2022-09-03T07:36:30;2.53;;;2.42;;
20318;SDS011;10317;47.254;11.314;2022-09-03T07:39:02;2.20;;;2.10;;
20318;SDS011;10317;47.254;11.314;2022-09-03T07:41:28;2.20;;;2.10;;
20318;SDS011;10317;47.254;11.314;2022-09-03T07:43:57;2.08;;;1.98;;
20318;SDS011;10317;47.254;11.314;2022-09-03T07:46:24;2.53;;;2.33;;
20318;SDS011;10317;47.254;11.314;2022-09-03T07:48:52;2.60;;;2.50;;
20318;SDS011;10317;47.254;11.314;2022-09-03T07:51:20;2.30;;;2.15;;
20318;SDS011;10317;47.254;11.314;2022-09-03T07:53:51;2.80;;;2.60;;
20318;SDS011;10317;47.254;11.314;2022-09-03T07:56:17;2.25;;;2.03;;
20318;SDS011;10317;47.254;11.314;2022-09-03T07:58:43;2.72;;;2.53;;
20318;SDS011;10317;47.254;11.314;2022-09-03T08:01:13;2.50;;;2.30;;
20318;SDS011;10317;47.254;11.314;2022-09-03T08:03:44;5.85;;;2.20;;
20318;SDS011;10317;47.254;11.314;2022-09-03T08:06:11;2.10;;;2.00;;
20318;SDS011;10317;47.254;11.314;2022-09-03T08:08:38;2.30;;;2.20;;
20318;SDS011;10317;47.254;11.314;2022-09-03T08:13:34;1.85;;;1.85;;
20318;SDS011;10317;47.254;11.314;2022-09-03T08:15:59;1.85;;;1.67;;
20318;SDS011;10317;47.254;11.314;2022-09-03T08:18:25;2.17;;;2.08;;
20318;SDS011;10317;47.254;11.314;2022-09-03T08:20:58;1.88;;;1.77;;
20318;SDS011;10317;47.254;11.314;2022-09-03T08:23:24;1.88;;;1.77;;
20318;SDS011;10317;47.254;11.314;2022-09-03T08:25:57;2.15;;;2.05;;
20318;SDS011;10317;47.254;11.314;2022-09-03T08:28:26;4.03;;;1.70;;
20318;SDS011;10317;47.254;11.314;2022-09-03T08:30:52;2.45;;;1.60;;
20318;SDS011;10317;47.254;11.314;2022-09-03T08:33:19;2.05;;;1.27;;
20318;SDS011;10317;47.254;11.314;2022-09-03T08:36:04;1.70;;;1.70;;
20318;SDS011;10317;47.254;11.314;2022-09-03T08:38:36;1.80;;;1.70;;
20318;SDS011;10317;47.254;11.314;2022-09-03T08:41:11;1.48;;;1.38;;
20318;SDS011;10317;47.254;11.314;2022-09-03T08:52:46;2.25;;;2.10;;
20318;SDS011;10317;47.254;11.314;2022-09-03T08:58:33;1.88;;;1.20;;
20318;SDS011;10317;47.254;11.314;2022-09-03T09:23:23;1.85;;;1.75;;
20318;SDS011;10317;47.254;11.314;2022-09-03T09:26:06;1.90;;;1.80;;
20318;SDS011;10317;47.254;11.314;2022-09-03T09:28:38;2.67;;;2.40;;
20318;SDS011;10317;47.254;11.314;2022-09-03T09:31:05;2.22;;;2.03;;
20318;SDS011;10317;47.254;11.314;2022-09-03T09:33:34;2.63;;;2.03;;
20318;SDS011;10317;47.254;11.314;2022-09-03T09:36:04;2.45;;;2.33;;
20318;SDS011;10317;47.254;11.314;2022-09-03T09:38:33;2.22;;;2.13;;
20318;SDS011;10317;47.254;11.314;2022-09-03T09:41:10;1.88;;;1.80;;
20318;SDS011;10317;47.254;11.314;2022-09-03T09:43:36;1.88;;;1.88;;
20318;SDS011;10317;47.254;11.314;2022-09-03T09:46:07;2.58;;;1.92;;
20318;SDS011;10317;47.254;11.314;2022-09-03T09:48:37;2.97;;;2.72;;
20318;SDS011;10317;47.254;11.314;2022-09-03T09:51:16;2.10;;;1.92;;
20318;SDS011;10317;47.254;11.314;2022-09-03T09:53:47;2.28;;;2.17;;
20318;SDS011;10317;47.254;11.314;2022-09-03T09:56:24;2.10;;;2.00;;
20318;SDS011;10317;47.254;11.314;2022-09-03T09:59:06;2.55;;;2.45;;
20318;SDS011;10317;47.254;11.314;2022-09-03T10:01:37;2.63;;;2.42;;
20318;SDS011;10317;47.254;11.314;2022-09-03T10:04:12;2.25;;;2.15;;
20318;SDS011;10317;47.254;11.314;2022-09-03T10:06:55;3.33;;;1.92;;
20318;SDS011;10317;47.254;11.314;2022-09-03T10:09:28;3.33;;;2.22;;
20318;SDS011;10317;47.254;11.314;2022-09-03T10:12:03;2.90;;;2.70;;
20318;SDS011;10317;47.254;11.314;2022-09-03T10:14:49;2.45;;;2.25;;
20318;SDS011;10317;47.254;11.314;2022-09-03T10:17:34;2.42;;;1.92;;
20318;SDS011;10317;47.254;11.314;2022-09-03T10:20:44;2.03;;;1.92;;
20318;SDS011;10317;47.254;11.314;2022-09-03T10:23:23;2.58;;;2.45;;
20318;SDS011;10317;47.254;11.314;2022-09-03T10:28:25;2.30;;;2.03;;
20318;SDS011;10317;47.254;11.314;2022-09-03T10:33:26;2.95;;;2.10;;
20318;SDS011;10317;47.254;11.314;2022-09-03T10:36:07;2.13;;;2.00;;
20318;SDS011;10317;47.254;11.314;2022-09-03T10:38:40;2.15;;;2.05;;
20318;SDS011;10317;47.254;11.314;2022-09-03T10:49:51;2.58;;;2.38;;
20318;SDS011;10317;47.254;11.314;2022-09-03T10:52:25;2.88;;;2.13;;
20318;SDS011;10317;47.254;11.314;2022-09-03T10:57:55;2.13;;;2.03;;
20318;SDS011;10317;47.254;11.314;2022-09-03T11:00:46;2.55;;;2.38;;
20318;SDS011;10317;47.254;11.314;2022-09-03T11:08:24;2.28;;;2.17;;
20318;SDS011;10317;47.254;11.314;2022-09-03T11:10:53;4.85;;;2.45;;
20318;SDS011;10317;47.254;11.314;2022-09-03T11:13:29;1.98;;;1.88;;
20318;SDS011;10317;47.254;11.314;2022-09-03T11:16:10;3.83;;;2.30;;
20318;SDS011;10317;47.254;11.314;2022-09-03T11:18:46;2.15;;;2.05;;
20318;SDS011;10317;47.254;11.314;2022-09-03T11:21:25;2.03;;;1.92;;
20318;SDS011;10317;47.254;11.314;2022-09-03T11:24:05;2.08;;;1.98;;
20318;SDS011;10317;47.254;11.314;2022-09-03T11:26:36;1.95;;;1.85;;
20318;SDS011;10317;47.254;11.314;2022-09-03T11:31:58;2.50;;;2.15;;
20318;SDS011;10317;47.254;11.314;2022-09-03T11:34:32;2.17;;;2.08;;
20318;SDS011;10317;47.254;11.314;2022-09-03T11:37:30;2.10;;;2.00;;
20318;SDS011;10317;47.254;11.314;2022-09-03T11:39:57;1.60;;;1.60;;
20318;SDS011;10317;47.254;11.314;2022-09-03T11:42:33;2.10;;;2.00;;
20318;SDS011;10317;47.254;11.314;2022-09-03T11:45:19;1.85;;;1.75;;
20318;SDS011;10317;47.254;11.314;2022-09-03T11:47:52;2.08;;;1.98;;
20318;SDS011;10317;47.254;11.314;2022-09-03T11:50:25;2.13;;;2.03;;
20318;SDS011;10317;47.254;11.314;2022-09-03T11:53:06;2.00;;;1.90;;
20318;SDS011;10317;47.254;11.314;2022-09-03T11:55:51;1.85;;;1.85;;
20318;SDS011;10317;47.254;11.314;2022-09-03T11:58:25;1.70;;;1.65;;
20318;SDS011;10317;47.254;11.314;2022-09-03T12:01:01;1.85;;;1.75;;
20318;SDS011;10317;47.254;11.314;2022-09-03T12:03:35;3.25;;;1.77;;
20318;SDS011;10317;47.254;11.314;2022-09-03T12:06:48;3.10;;;2.20;;
20318;SDS011;10317;47.254;11.314;2022-09-03T12:14:37;3.20;;;1.70;;
20318;SDS011;10317;47.254;11.314;2022-09-03T12:17:29;1.80;;;1.70;;
20318;SDS011;10317;47.254;11.314;2022-09-03T12:20:02;2.83;;;2.42;;
20318;SDS011;10317;47.254;11.314;2022-09-03T12:22:38;1.95;;;1.85;;
20318;SDS011;10317;47.254;11.314;2022-09-03T12:25:13;1.85;;;1.83;;
20318;SDS011;10317;47.254;11.314;2022-09-03T12:27:41;2.13;;;2.03;;
20318;SDS011;10317;47.254;11.314;2022-09-03T12:30:16;2.20;;;2.10;;
20318;SDS011;10317;47.254;11.314;2022-09-03T12:32:43;3.03;;;2.10;;
20318;SDS011;10317;47.254;11.314;2022-09-03T12:35:10;2.20;;;2.10;;
20318;SDS011;10317;47.254;11.314;2022-09-03T12:37:40;2.15;;;1.80;;
20318;SDS011;10317;47.254;11.314;2022-09-03T12:40:43;1.80;;;1.73;;
20318;SDS011;10317;47.254;11.314;2022-09-03T12:43:13;1.95;;;1.92;;
20318;SDS011;10317;47.254;11.314;2022-09-03T12:45:44;2.72;;;1.70;;
20318;SDS011;10317;47.254;11.314;2022-09-03T12:48:15;3.17;;;1.70;;
20318;SDS011;10317;47.254;11.314;2022-09-03T12:50:43;2.17;;;2.08;;
20318;SDS011;10317;47.254;11.314;2022-09-03T12:53:12;2.45;;;2.25;;
20318;SDS011;10317;47.254;11.314;2022-09-03T12:55:53;2.28;;;2.03;;
20318;SDS011;10317;47.254;11.314;2022-09-03T12:58:31;1.80;;;1.80;;
20318;SDS011;10317;47.254;11.314;2022-09-03T13:01:07;2.58;;;2.05;;
20318;SDS011;10317;47.254;11.314;2022-09-03T13:04:11;2.10;;;2.00;;
20318;SDS011;10317;47.254;11.314;2022-09-03T13:06:30;3.70;;;2.00;;
20318;SDS011;10317;47.254;11.314;2022-09-03T13:09:10;2.10;;;2.00;;
20318;SDS011;10317;47.254;11.314;2022-09-03T13:11:38;2.13;;;2.03;;
20318;SDS011;10317;47.254;11.314;2022-09-03T13:14:10;2.00;;;1.90;;
20318;SDS011;10317;47.254;11.314;2022-09-03T13:19:21;3.22;;;2.47;;
20318;SDS011;10317;47.254;11.314;2022-09-03T13:34:07;2.28;;;2.17;;
20318;SDS011;10317;47.254;11.314;2022-09-03T13:36:44;2.50;;;2.40;;
20318;SDS011;10317;47.254;11.314;2022-09-03T13:39:42;3.35;;;2.45;;
20318;SDS011;10317;47.254;11.314;2022-09-03T13:42:15;3.15;;;2.20;;
20318;SDS011;10317;47.254;11.314;2022-09-03T13:44:55;2.58;;;2.45;;
20318;SDS011;10317;47.254;11.314;2022-09-03T13:47:51;2.42;;;2.30;;
20318;SDS011;10317;47.254;11.314;2022-09-03T13:53:35;2.67;;;2.47;;
20318;SDS011;10317;47.254;11.314;2022-09-03T13:59:15;2.38;;;2.13;;
20318;SDS011;10317;47.254;11.314;2022-09-03T14:05:00;2.33;;;2.22;;
20318;SDS011;10317;47.254;11.314;2022-09-03T14:07:40;2.22;;;2.13;;
20318;SDS011;10317;47.254;11.314;2022-09-03T14:10:52;2.28;;;2.17;;
20318;SDS011;10317;47.254;11.314;2022-09-03T14:13:41;2.58;;;2.47;;
20318;SDS011;10317;47.254;11.314;2022-09-03T14:19:07;2.40;;;2.05;;
20318;SDS011;10317;47.254;11.314;2022-09-03T14:21:53;2.92;;;2.70;;
20318;SDS011;10317;47.254;11.314;2022-09-03T14:24:44;2.13;;;2.03;;
20318;SDS011;10317;47.254;11.314;2022-09-03T14:27:23;2.92;;;2.42;;
20318;SDS011;10317;47.254;11.314;2022-09-03T14:29:57;2.50;;;2.38;;
20318;SDS011;10317;47.254;11.314;2022-09-03T14:32:29;3.75;;;2.35;;
20318;SDS011;10317;47.254;11.314;2022-09-03T14:46:35;2.50;;;2.40;;
20318;SDS011;10317;47.254;11.314;2022-09-03T14:52:56;4.55;;;3.63;;
20318;SDS011;10317;47.254;11.314;2022-09-03T15:05:49;2.83;;;2.60;;
20318;SDS011;10317;47.254;11.314;2022-09-03T15:08:37;2.80;;;2.70;;
20318;SDS011;10317;47.254;11.314;2022-09-03T15:11:28;4.45;;;2.60;;
20318;SDS011;10317;47.254;11.314;2022-09-03T15:14:33;3.05;;;2.78;;
20318;SDS011;10317;47.254;11.314;2022-09-03T15:16:58;2.75;;;2.20;;
20318;SDS011;10317;47.254;11.314;2022-09-03T16:25:06;3.00;;;1.95;;
20318;SDS011;10317;47.254;11.314;2022-09-03T16:27:51;1.90;;;1.80;;
20318;SDS011;10317;47.254;11.314;2022-09-03T16:30:29;2.78;;;2.60;;
20318;SDS011;10317;47.254;11.314;2022-09-03T16:43:53;3.53;;;1.95;;
20318;SDS011;10317;47.254;11.314;2022-09-03T17:00:27;2.67;;;2.42;;
20318;SDS011;10317;47.254;11.314;2022-09-03T17:03:16;2.63;;;2.13;;
20318;SDS011;10317;47.254;11.314;2022-09-03T17:14:21;7.43;;;2.50;;
20318;SDS011;10317;47.254;11.314;2022-09-03T17:17:19;2.80;;;2.60;;
20318;SDS011;10317;47.254;11.314;2022-09-03T17:21:02;2.78;;;2.45;;
20318;SDS011;10317;47.254;11.314;2022-09-03T17:25:51;3.72;;;2.75;;
20318;SDS011;10317;47.254;11.314;2022-09-03T17:31:12;2.88;;;2.67;;
20318;SDS011;10317;47.254;11.314;2022-09-03T17:36:59;4.07;;;3.60;;
20318;SDS011;10317;47.254;11.314;2022-09-03T17:42:05;3.67;;;3.17;;
20318;SDS011;10317;47.254;11.314;2022-09-03T17:44:54;3.53;;;3.33;;
20318;SDS011;10317;47.254;11.314;2022-09-03T17:47:46;3.83;;;3.15;;
20318;SDS011;10317;47.254;11.314;2022-09-03T17:50:49;2.78;;;2.67;;
20318;SDS011;10317;47.254;11.314;2022-09-03T17:53:39;3.08;;;2.85;;
20318;SDS011;10317;47.254;11.314;2022-09-03T17:56:33;5.53;;;3.78;;
20318;SDS011;10317;47.254;11.314;2022-09-03T18:01:51;3.03;;;2.83;;
20318;SDS011;10317;47.254;11.314;2022-09-03T18:04:45;2.03;;;1.92;;
20318;SDS011;10317;47.254;11.314;2022-09-03T18:07:25;1.80;;;1.70;;
20318;SDS011;10317;47.254;11.314;2022-09-03T18:12:44;1.65;;;1.42;;
20318;SDS011;10317;47.254;11.314;2022-09-03T18:15:14;1.48;;;1.35;;
20318;SDS011;10317;47.254;11.314;2022-09-03T18:18:09;1.33;;;1.23;;
20318;SDS011;10317;47.254;11.314;2022-09-03T18:20:52;1.42;;;1.33;;
20318;SDS011;10317;47.254;11.314;2022-09-03T18:26:39;0.90;;;0.90;;
20318;SDS011;10317;47.254;11.314;2022-09-03T18:29:42;2.38;;;1.08;;
20318;SDS011;10317;47.254;11.314;2022-09-03T18:32:37;1.98;;;0.98;;
20318;SDS011;10317;47.254;11.314;2022-09-03T18:35:22;1.20;;;1.20;;
20318;SDS011;10317;47.254;11.314;2022-09-03T18:38:11;1.20;;;1.10;;
20318;SDS011;10317;47.254;11.314;2022-09-03T18:40:58;1.20;;;1.20;;
20318;SDS011;10317;47.254;11.314;2022-09-03T18:49:31;1.30;;;1.23;;
20318;SDS011;10317;47.254;11.314;2022-09-03T19:01:38;0.90;;;0.90;;
20318;SDS011;10317;47.254;11.314;2022-09-03T19:10:24;1.10;;;0.88;;
20318;SDS011;10317;47.254;11.314;2022-09-03T19:13:37;0.98;;;0.98;;
20318;SDS011;10317;47.254;11.314;2022-09-03T19:19:13;0.80;;;0.80;;
20318;SDS011;10317;47.254;11.314;2022-09-03T19:22:40;1.08;;;1.08;;
20318;SDS011;10317;47.254;11.314;2022-09-03T19:25:25;0.90;;;0.90;;
20318;SDS011;10317;47.254;11.314;2022-09-03T19:53:14;1.10;;;1.10;;
20318;SDS011;10317;47.254;11.314;2022-09-03T19:56:23;1.20;;;1.20;;
20318;SDS011;10317;47.254;11.314;2022-09-03T19:59:20;0.98;;;0.98;;
20318;SDS011;10317;47.254;11.314;2022-09-03T20:02:08;1.20;;;1.20;;
20318;SDS011;10317;47.254;11.314;2022-09-03T20:04:55;1.30;;;1.30;;
20318;SDS011;10317;47.254;11.314;2022-09-03T20:07:42;1.45;;;1.45;;
20318;SDS011;10317;47.254;11.314;2022-09-03T20:10:29;1.30;;;1.08;;
20318;SDS011;10317;47.254;11.314;2022-09-03T20:18:48;1.20;;;1.20;;
20318;SDS011;10317;47.254;11.314;2022-09-03T20:21:38;3.92;;;1.08;;
20318;SDS011;10317;47.254;11.314;2022-09-03T20:29:47;2.67;;;2.08;;
20318;SDS011;10317;47.254;11.314;2022-09-03T20:35:09;1.00;;;1.00;;
20318;SDS011;10317;47.254;11.314;2022-09-03T20:50:27;1.55;;;1.13;;
20318;SDS011;10317;47.254;11.314;2022-09-03T20:55:50;1.33;;;1.10;;
20318;SDS011;10317;47.254;11.314;2022-09-03T21:03:34;1.23;;;1.20;;
20318;SDS011;10317;47.254;11.314;2022-09-03T21:06:32;1.17;;;1.08;;
20318;SDS011;10317;47.254;11.314;2022-09-03T21:14:38;4.35;;;1.35;;
20318;SDS011;10317;47.254;11.314;2022-09-03T21:20:27;1.30;;;1.30;;
20318;SDS011;10317;47.254;11.314;2022-09-03T21:23:18;1.45;;;1.20;;
20318;SDS011;10317;47.254;11.314;2022-09-03T21:26:06;1.02;;;1.00;;
20318;SDS011;10317;47.254;11.314;2022-09-03T21:28:40;1.92;;;1.25;;
20318;SDS011;10317;47.254;11.314;2022-09-03T21:31:32;2.42;;;1.17;;
20318;SDS011;10317;47.254;11.314;2022-09-03T21:33:59;1.50;;;1.40;;
20318;SDS011;10317;47.254;11.314;2022-09-03T21:36:51;3.60;;;1.45;;
20318;SDS011;10317;47.254;11.314;2022-09-03T21:39:23;5.95;;;1.58;;
20318;SDS011;10317;47.254;11.314;2022-09-03T21:47:05;7.45;;;1.45;;
20318;SDS011;10317;47.254;11.314;2022-09-03T21:49:35;1.80;;;1.20;;
20318;SDS011;10317;47.254;11.314;2022-09-03T21:52:23;1.33;;;1.23;;